Time;durP1;ratioP1;P1;durP2;ratioP2;P2;SDS_P1;SDS_P2;PMS_P1;PMS_P2;Temp;Humidity;BMP_temperature;BMP_pressure;BME280_temperature;BME280_humidity;BME280_pressure;Samples;Min_cycle;Max_cycle;Signal;HPM_P1;HPM_P2
2022/08/27 00:02:19;;;;;;;9.03;4.03;;;;;;;28.43;45.82;100743.70;1586701;90;21025;-51
2022/08/27 00:04:46;;;;;;;6.00;2.80;;;;;;;28.40;46.00;100742.67;1641405;86;21528;-50
2022/08/27 00:07:13;;;;;;;8.30;3.20;;;;;;;28.38;46.33;100742.80;1646056;86;21018;-49
2022/08/27 00:09:40;;;;;;;8.80;3.62;;;;;;;28.37;46.26;100738.94;1645233;86;20987;-51
2022/08/27 00:12:07;;;;;;;7.85;2.83;;;;;;;28.34;46.33;100726.69;1658236;83;20964;-50
2022/08/27 00:14:34;;;;;;;6.10;3.35;;;;;;;28.33;46.29;100727.69;1711154;83;21519;-51
2022/08/27 00:17:01;;;;;;;6.17;2.77;;;;;;;28.31;46.04;100724.32;1716346;84;20963;-50
2022/08/27 00:19:29;;;;;;;5.92;3.42;;;;;;;28.31;46.20;100712.28;1748123;82;20971;-51
2022/08/27 00:21:56;;;;;;;7.25;3.10;;;;;;;28.31;46.08;100721.64;1756280;81;20955;-56
2022/08/27 00:24:23;;;;;;;7.62;3.02;;;;;;;28.30;45.80;100729.31;1779622;80;21463;-50
2022/08/27 00:26:52;;;;;;;4.65;3.08;;;;;;;28.29;45.62;100735.67;1779641;81;20954;-50
2022/08/27 00:29:19;;;;;;;6.20;2.83;;;;;;;28.29;46.05;100737.49;1779860;81;20971;-51
2022/08/27 00:31:46;;;;;;;7.55;3.12;;;;;;;28.27;45.92;100743.00;1779636;81;20963;-49
2022/08/27 00:34:13;;;;;;;5.20;2.70;;;;;;;28.26;45.69;100742.64;1779343;80;21439;-52
2022/08/27 00:36:40;;;;;;;8.48;2.58;;;;;;;28.25;45.59;100743.64;1779368;80;20931;-50
2022/08/27 00:39:06;;;;;;;8.08;3.33;;;;;;;28.23;45.74;100748.30;1779645;80;20954;-53
2022/08/27 00:41:33;;;;;;;7.00;3.10;;;;;;;28.19;45.79;100751.73;1779672;80;20931;-53
2022/08/27 00:44:00;;;;;;;7.75;3.52;;;;;;;28.16;46.34;100750.70;1779640;80;20994;-56
2022/08/27 00:46:38;;;;;;;8.35;3.20;;;;;;;28.13;46.94;100753.66;1779720;80;20919;-49
2022/08/27 00:49:21;;;;;;;6.67;3.10;;;;;;;28.10;47.11;100753.12;1690661;84;21049;-53
2022/08/27 00:52:04;;;;;;;10.20;3.17;;;;;;;28.07;47.10;100756.92;1690545;84;20961;-51
2022/08/27 00:54:31;;;;;;;6.78;2.85;;;;;;;28.06;47.68;100757.92;1667351;85;20971;-50
2022/08/27 00:56:58;;;;;;;6.78;2.65;;;;;;;28.06;47.61;100753.06;1672041;85;21062;-53
2022/08/27 00:59:28;;;;;;;6.12;3.00;;;;;;;28.06;46.96;100751.23;1664668;85;21494;-50
2022/08/27 01:04:40;;;;;;;9.35;3.05;;;;;;;28.05;46.90;100756.22;1665400;85;21487;-51
2022/08/27 01:07:08;;;;;;;8.45;2.72;;;;;;;28.05;46.88;100752.70;1669673;85;20971;-49
2022/08/27 01:09:35;;;;;;;6.40;2.62;;;;;;;28.02;46.29;100751.17;1646182;85;21094;-52
2022/08/27 01:12:03;;;;;;;7.15;3.00;;;;;;;28.02;46.02;100761.02;1666654;85;21002;-52
2022/08/27 01:14:29;;;;;;;8.40;2.75;;;;;;;28.02;46.02;100761.02;1634006;86;21053;-51
2022/08/27 01:16:57;;;;;;;5.45;2.55;;;;;;;27.99;45.52;100758.63;1653379;86;20990;-50
2022/08/27 01:19:34;;;;;;;10.03;2.50;;;;;;;27.97;45.53;100757.92;1655473;86;21034;-51
2022/08/27 01:22:38;;;;;;;5.85;3.22;;;;;;;27.95;45.64;100758.05;1641528;85;21027;-53
2022/08/27 01:25:12;;;;;;;3.37;2.30;;;;;;;27.93;45.48;100759.17;1667814;85;21006;-52
2022/08/27 01:27:40;;;;;;;4.80;2.60;;;;;;;27.90;44.91;100756.80;1667288;85;21107;-51
2022/08/27 01:30:08;;;;;;;4.47;2.72;;;;;;;27.87;44.91;100758.41;1673519;85;20987;-50
2022/08/27 01:32:35;;;;;;;5.92;2.62;;;;;;;27.84;45.02;100758.20;1712566;83;20998;-52
2022/08/27 01:35:05;;;;;;;8.03;3.10;;;;;;;27.82;44.83;100759.35;1716740;83;20985;-51
2022/08/27 01:37:33;;;;;;;5.83;2.90;;;;;;;27.81;44.95;100757.66;1708720;83;20971;-56
2022/08/27 01:40:00;;;;;;;6.50;2.77;;;;;;;27.78;44.99;100758.77;1783572;80;20974;-52
2022/08/27 01:42:35;;;;;;;4.40;2.40;;;;;;;27.76;45.21;100759.92;1793408;80;21475;-50
2022/08/27 01:45:19;;;;;;;5.78;2.60;;;;;;;27.73;45.08;100755.70;1721979;83;21017;-49
2022/08/27 01:47:46;;;;;;;9.08;3.17;;;;;;;27.71;44.99;100766.18;1700089;84;20989;-53
2022/08/27 01:50:20;;;;;;;9.80;3.22;;;;;;;27.66;45.47;100767.09;1703041;84;20989;-50
2022/08/27 01:52:48;;;;;;;7.40;2.98;;;;;;;27.62;45.75;100767.88;1668243;86;21061;-54
2022/08/27 01:55:17;;;;;;;8.63;3.10;;;;;;;27.60;45.91;100768.51;1671612;86;20997;-51
2022/08/27 01:57:44;;;;;;;8.08;2.87;;;;;;;27.57;45.88;100761.27;1671727;86;21022;-50
2022/08/27 02:00:18;;;;;;;4.95;3.10;;;;;;;27.55;45.81;100757.90;1671650;86;21001;-49
2022/08/27 02:02:45;;;;;;;7.47;2.92;;;;;;;27.52;45.80;100756.83;1625625;88;21037;-54
2022/08/27 02:05:12;;;;;;;5.53;3.30;;;;;;;27.50;45.42;100764.14;1625723;88;21532;-53
2022/08/27 02:07:39;;;;;;;6.00;2.98;;;;;;;27.47;45.42;100763.11;1625753;88;21100;-50
2022/08/27 02:10:10;;;;;;;7.08;3.10;;;;;;;27.44;45.45;100767.38;1625729;88;21002;-50
2022/08/27 02:12:36;;;;;;;9.60;3.55;;;;;;;27.43;45.51;100763.04;1625134;88;21084;-55
2022/08/27 02:15:06;;;;;;;8.75;3.65;;;;;;;27.40;45.37;100764.16;1621115;88;21061;-55
2022/08/27 02:17:33;;;;;;;6.87;3.40;;;;;;;27.38;45.10;100766.98;1614978;89;21010;-50
2022/08/27 02:20:00;;;;;;;6.42;3.10;;;;;;;27.36;45.33;100771.63;1615022;89;21025;-50
2022/08/27 02:22:27;;;;;;;5.10;3.10;;;;;;;27.35;45.52;100765.91;1614946;89;21017;-49
2022/08/27 02:24:54;;;;;;;10.50;3.50;;;;;;;27.33;45.75;100769.17;1614928;89;21010;-51
2022/08/27 02:27:21;;;;;;;6.25;2.85;;;;;;;27.31;45.83;100766.28;1614962;89;21073;-50
2022/08/27 02:29:49;;;;;;;8.28;3.37;;;;;;;27.28;45.86;100770.11;1615047;89;21583;-51
2022/08/27 02:32:16;;;;;;;7.67;3.37;;;;;;;27.26;45.74;100768.06;1614987;89;21025;-52
2022/08/27 02:34:43;;;;;;;5.25;3.33;;;;;;;27.26;45.61;100767.22;1614945;89;20997;-49
2022/08/27 02:37:09;;;;;;;6.20;3.30;;;;;;;27.24;45.63;100771.34;1614933;89;21053;-50
2022/08/27 02:39:36;;;;;;;8.40;3.33;;;;;;;27.22;45.28;100768.48;1614964;89;21002;-52
2022/08/27 02:42:03;;;;;;;9.40;3.17;;;;;;;27.21;44.97;100766.29;1614937;89;21085;-50
2022/08/27 02:44:30;;;;;;;7.72;3.30;;;;;;;27.19;44.86;100766.92;1608145;89;21045;-49
2022/08/27 02:46:57;;;;;;;6.85;3.33;;;;;;;27.17;44.75;100763.55;1607002;89;20987;-56
2022/08/27 02:49:24;;;;;;;9.83;3.22;;;;;;;27.17;45.02;100770.70;1670564;86;21046;-51
2022/08/27 02:51:55;;;;;;;5.45;2.80;;;;;;;27.15;44.73;100768.19;1671738;86;21006;-56
2022/08/27 02:54:25;;;;;;;8.28;3.12;;;;;;;27.16;44.81;100769.03;1671117;86;21105;-52
2022/08/27 02:56:52;;;;;;;9.70;4.03;;;;;;;27.16;45.08;100775.20;1698969;84;21451;-51
2022/08/27 02:59:19;;;;;;;8.33;3.52;;;;;;;27.15;45.25;100778.87;1702631;84;21027;-51
2022/08/27 03:01:46;;;;;;;6.28;3.37;;;;;;;27.15;45.15;100785.55;1702555;84;20982;-49
2022/08/27 03:04:12;;;;;;;11.73;3.20;;;;;;;27.15;44.91;100780.69;1702593;84;21002;-52
2022/08/27 03:06:40;;;;;;;3.52;2.87;;;;;;;27.13;44.85;100786.17;1726697;83;20951;-52
2022/08/27 03:09:09;;;;;;;4.22;2.98;;;;;;;27.13;44.74;100788.84;1733257;83;21478;-53
2022/08/27 03:11:35;;;;;;;7.97;3.10;;;;;;;27.14;44.70;100793.19;1733481;83;20957;-53
2022/08/27 03:14:02;;;;;;;4.17;2.70;;;;;;;27.14;44.55;100795.86;1733488;83;20955;-49
2022/08/27 03:16:29;;;;;;;8.75;3.30;;;;;;;27.15;44.33;100795.38;1764369;80;20999;-51
2022/08/27 03:18:55;;;;;;;6.85;2.98;;;;;;;27.16;44.37;100801.91;1766351;81;21447;-57
2022/08/27 03:21:23;;;;;;;9.33;3.08;;;;;;;27.16;44.97;100796.56;1758218;81;21517;-49
2022/08/27 03:23:50;;;;;;;5.75;3.15;;;;;;;27.15;45.22;100799.39;1768426;80;20947;-49
2022/08/27 03:26:17;;;;;;;6.58;3.58;;;;;;;27.13;45.13;100800.87;1768332;80;20962;-53
2022/08/27 03:28:44;;;;;;;8.08;2.90;;;;;;;27.11;45.06;100793.48;1766557;81;20958;-50
2022/08/27 03:31:19;;;;;;;11.30;3.52;;;;;;;27.08;45.02;100789.73;1755679;81;20958;-51
2022/08/27 03:33:45;;;;;;;6.60;3.58;;;;;;;27.08;45.35;100791.08;1762860;81;20942;-51
2022/08/27 03:36:12;;;;;;;9.35;4.85;;;;;;;27.07;45.56;100796.08;1771073;80;20978;-50
2022/08/27 03:38:38;;;;;;;11.20;3.62;;;;;;;27.09;45.94;100795.45;1759342;80;20963;-51
2022/08/27 03:41:05;;;;;;;7.97;4.00;;;;;;;27.08;46.27;100793.75;1765838;80;21010;-52
2022/08/27 03:43:32;;;;;;;10.72;3.50;;;;;;;27.10;46.44;100800.31;1765789;81;20955;-55
2022/08/27 03:45:59;;;;;;;10.40;4.05;;;;;;;27.10;46.41;100807.81;1765459;80;20963;-51
2022/08/27 03:48:27;;;;;;;6.90;3.35;;;;;;;27.12;46.42;100800.50;1769368;81;20959;-53
2022/08/27 03:50:53;;;;;;;13.22;3.70;;;;;;;27.13;46.31;100798.20;1763847;81;20985;-51
2022/08/27 03:53:20;;;;;;;7.97;3.65;;;;;;;27.15;46.06;100800.23;1763900;81;21447;-50
2022/08/27 03:55:46;;;;;;;10.70;3.67;;;;;;;27.17;45.77;100802.77;1765577;81;20982;-52
2022/08/27 03:58:13;;;;;;;12.35;3.95;;;;;;;27.17;45.53;100802.28;1765087;81;20986;-52
2022/08/27 04:00:40;;;;;;;9.70;4.12;;;;;;;27.17;45.40;100804.95;1764921;81;20927;-51
2022/08/27 04:03:07;;;;;;;8.25;3.90;;;;;;;27.16;45.38;100803.77;1768726;81;20949;-51
2022/08/27 04:05:33;;;;;;;5.40;3.30;;;;;;;27.13;45.10;100809.37;1761216;81;20959;-52
2022/08/27 04:08:01;;;;;;;7.17;3.90;;;;;;;27.10;45.05;100818.49;1771010;81;20970;-50
2022/08/27 04:10:28;;;;;;;10.03;4.33;;;;;;;27.04;45.25;100813.70;1762444;81;20955;-50
2022/08/27 04:12:54;;;;;;;10.88;3.92;;;;;;;27.00;45.45;100808.28;1765395;81;20939;-51
2022/08/27 04:15:21;;;;;;;6.72;3.62;;;;;;;26.98;45.37;100811.58;1770335;80;21525;-49
2022/08/27 04:17:48;;;;;;;9.05;3.62;;;;;;;26.94;45.40;100806.16;1787888;80;20978;-51
2022/08/27 04:20:14;;;;;;;9.48;3.70;;;;;;;26.91;45.06;100802.44;1783136;80;20970;-51
2022/08/27 04:22:41;;;;;;;8.43;3.95;;;;;;;26.89;44.67;100804.41;1787644;80;20970;-50
2022/08/27 04:25:08;;;;;;;9.73;4.05;;;;;;;26.89;44.43;100800.40;1787946;80;20966;-51
2022/08/27 04:27:35;;;;;;;11.05;3.42;;;;;;;26.87;44.28;100797.02;1767563;80;20942;-50
2022/08/27 04:30:03;;;;;;;5.85;3.30;;;;;;;26.88;44.24;100805.85;1787911;80;20934;-50
2022/08/27 04:32:30;;;;;;;6.55;3.42;;;;;;;26.87;44.24;100799.69;1788002;80;21039;-49
2022/08/27 04:34:58;;;;;;;8.43;4.05;;;;;;;26.87;44.27;100803.70;1788060;80;21439;-49
2022/08/27 04:37:25;;;;;;;9.58;3.62;;;;;;;26.88;44.28;100801.36;1787990;80;21132;-52
2022/08/27 04:39:51;;;;;;;12.10;3.72;;;;;;;26.88;44.55;100802.70;1787932;80;20926;-54
2022/08/27 04:42:18;;;;;;;5.85;3.30;;;;;;;26.88;44.83;100806.70;1787895;80;20962;-51
2022/08/27 04:44:45;;;;;;;5.95;3.25;;;;;;;26.88;44.70;100808.03;1788132;80;20958;-52
2022/08/27 04:47:12;;;;;;;7.92;3.90;;;;;;;26.88;44.58;100801.84;1786572;80;20951;-50
2022/08/27 04:49:39;;;;;;;6.95;3.30;;;;;;;26.86;44.40;100799.32;1787930;80;20986;-50
2022/08/27 04:52:06;;;;;;;6.33;3.58;;;;;;;26.85;44.47;100793.64;1787856;80;20954;-49
2022/08/27 04:54:33;;;;;;;8.85;3.67;;;;;;;26.87;44.40;100797.02;1787858;80;20951;-51
2022/08/27 04:57:01;;;;;;;5.67;3.55;;;;;;;26.86;44.34;100791.31;1787852;80;20986;-50
2022/08/27 04:59:28;;;;;;;7.05;3.62;;;;;;;26.86;44.64;100793.98;1787807;80;20931;-50
2022/08/27 05:01:55;;;;;;;9.03;3.90;;;;;;;26.85;44.58;100790.97;1787881;80;20978;-51
2022/08/27 05:04:23;;;;;;;7.80;3.50;;;;;;;26.86;44.71;100792.64;1788145;80;21021;-50
2022/08/27 05:06:50;;;;;;;6.15;3.27;;;;;;;26.89;44.48;100794.20;1787669;80;21437;-50
2022/08/27 05:09:17;;;;;;;5.67;3.25;;;;;;;26.89;44.31;100796.39;1787927;80;20990;-48
2022/08/27 05:11:43;;;;;;;11.12;4.05;;;;;;;26.90;44.18;100798.06;1787617;80;21474;-51
2022/08/27 05:14:12;;;;;;;7.87;3.08;;;;;;;26.93;44.29;100787.13;1787871;80;21502;-50
2022/08/27 05:16:39;;;;;;;5.10;3.58;;;;;;;26.95;44.16;100785.64;1787824;80;21002;-53
2022/08/27 05:19:07;;;;;;;9.53;3.77;;;;;;;26.97;44.32;100783.20;1787600;80;21071;-49
2022/08/27 05:21:37;;;;;;;11.18;3.95;;;;;;;26.98;44.17;100774.19;1787954;80;20966;-52
2022/08/27 05:24:05;;;;;;;6.90;3.60;;;;;;;26.98;44.47;100779.53;1788050;80;21021;-50
2022/08/27 05:26:33;;;;;;;5.75;3.72;;;;;;;26.99;44.22;100777.71;1788078;80;20955;-53
2022/08/27 05:29:02;;;;;;;6.75;3.90;;;;;;;27.01;44.01;100781.94;1787978;80;21486;-49
2022/08/27 05:31:29;;;;;;;10.15;3.60;;;;;;;27.02;43.92;100780.94;1788121;80;20987;-52
2022/08/27 05:33:56;;;;;;;9.63;4.12;;;;;;;27.04;43.78;100781.65;1788051;80;20958;-53
2022/08/27 05:36:27;;;;;;;7.67;4.10;;;;;;;27.08;43.75;100785.73;1787770;80;20990;-48
2022/08/27 05:38:54;;;;;;;;;;;;;;;27.11;43.62;100782.80;1682506;84;21029;-51
2022/08/27 05:41:26;;;;;;;7.12;3.72;;;;;;;27.14;43.78;100778.50;1678069;84;20107;-49
2022/08/27 05:43:54;;;;;;;4.90;3.65;;;;;;;27.16;43.44;100774.38;1669212;85;21435;-49
2022/08/27 08:16:52;;;;;;;7.47;4.30;;;;;;;30.21;38.25;100818.29;1790130;78;27010;-54
2022/08/27 08:19:19;;;;;;;9.65;4.53;;;;;;;30.26;37.64;100815.46;1763017;80;21023;-55
2022/08/27 08:21:46;;;;;;;8.43;5.00;;;;;;;30.32;38.15;100821.58;1765910;80;21078;-55
2022/08/27 08:24:13;;;;;;;5.40;4.30;;;;;;;30.36;38.42;100825.62;1761690;80;21019;-55
2022/08/27 08:26:40;;;;;;;9.60;4.37;;;;;;;30.40;38.72;100826.98;1775678;80;20984;-56
2022/08/27 08:29:07;;;;;;;6.22;4.45;;;;;;;30.44;38.83;100822.98;1758890;80;21496;-55
2022/08/27 08:31:34;;;;;;;8.45;4.60;;;;;;;30.47;38.88;100821.34;1738712;80;21082;-56
2022/08/27 08:34:01;;;;;;;10.10;4.17;;;;;;;30.51;39.04;100820.02;1753540;80;21074;-55
2022/08/27 08:36:29;;;;;;;6.47;4.28;;;;;;;30.56;39.08;100824.06;1732450;81;21058;-56
2022/08/27 08:38:56;;;;;;;8.00;4.28;;;;;;;30.58;38.98;100826.94;1748681;81;21039;-55
2022/08/27 08:41:39;;;;;;;8.35;4.10;;;;;;;30.62;38.62;100823.42;1750419;80;21107;-55
2022/08/27 08:44:17;;;;;;;8.08;4.35;;;;;;;30.67;38.66;100823.28;1758485;80;21026;-56
2022/08/27 08:46:49;;;;;;;9.18;4.50;;;;;;;30.71;38.97;100817.11;1669657;83;21143;-55
2022/08/27 08:49:33;;;;;;;7.92;4.55;;;;;;;30.76;38.60;100825.50;1697587;83;21037;-57
2022/08/27 08:52:20;;;;;;;4.85;4.35;;;;;;;30.80;38.78;100823.69;1625432;86;21149;-57
2022/08/27 08:54:48;;;;;;;5.83;4.17;;;;;;;30.86;38.48;100826.25;1634338;86;21108;-57
2022/08/27 08:57:23;;;;;;;8.03;5.05;;;;;;;30.91;38.15;100827.47;1628356;86;21066;-57
2022/08/27 09:00:11;;;;;;;7.80;5.30;;;;;;;30.97;38.40;100831.34;1584660;88;21639;-57
2022/08/27 09:02:35;;;;;;;6.95;5.55;;;;;;;31.03;38.55;100833.37;1570386;88;21063;-57
2022/08/27 09:05:05;;;;;;;7.62;4.97;;;;;;;31.11;38.58;100838.78;1576990;89;21110;-57
2022/08/27 09:07:44;;;;;;;13.03;5.00;;;;;;;31.17;37.94;100839.47;1591848;88;21610;-57
2022/08/27 09:10:28;;;;;;;7.40;5.42;;;;;;;31.19;38.00;100835.62;1581621;88;21076;-57
2022/08/27 09:12:58;;;;;;;9.35;5.28;;;;;;;31.25;38.07;100832.77;1596827;88;21319;-56
2022/08/27 09:15:28;;;;;;;7.65;5.10;;;;;;;31.29;38.10;100835.47;1601471;88;21126;-55
2022/08/27 09:18:10;;;;;;;9.33;5.62;;;;;;;31.33;37.90;100839.51;1586855;88;21095;-57
2022/08/27 09:20:37;;;;;;;8.10;4.72;;;;;;;31.35;38.11;100836.15;1592715;88;21551;-56
2022/08/27 09:23:25;;;;;;;10.48;5.42;;;;;;;31.36;38.62;100837.84;1591593;88;21070;-57
2022/08/27 09:25:52;;;;;;;12.37;5.47;;;;;;;31.39;38.60;100845.60;1542624;90;21230;-56
2022/08/27 09:31:16;;;;;;;8.25;5.20;;;;;;;31.42;37.96;100845.78;1523263;92;21132;-57
2022/08/27 09:33:43;;;;;;;7.83;5.00;;;;;;;31.40;38.30;100847.30;1521034;92;21122;-57
2022/08/27 09:36:15;;;;;;;10.82;5.25;;;;;;;31.40;38.32;100844.61;1525707;91;21094;-57
2022/08/27 09:38:57;;;;;;;10.93;4.97;;;;;;;31.40;37.89;100851.33;1601662;88;21124;-57
2022/08/27 09:41:28;;;;;;;8.00;4.90;;;;;;;31.41;38.07;100854.88;1581659;88;21073;-57
2022/08/27 09:44:02;;;;;;;9.58;5.42;;;;;;;31.41;38.19;100855.69;1596470;88;21065;-57
2022/08/27 09:46:30;;;;;;;11.95;5.90;;;;;;;31.42;38.31;100864.11;1607522;88;21027;-57
2022/08/27 09:48:56;;;;;;;10.20;5.25;;;;;;;31.42;38.51;100868.64;1631380;86;21037;-57
2022/08/27 09:51:26;;;;;;;7.78;5.60;;;;;;;31.44;38.61;100870.17;1669478;85;21102;-57
2022/08/27 09:53:58;;;;;;;8.50;5.35;;;;;;;31.47;38.81;100860.94;1678969;84;21565;-57
2022/08/27 09:56:37;;;;;;;9.78;5.12;;;;;;;31.50;39.10;100866.81;1660998;84;21010;-57
2022/08/27 09:59:11;;;;;;;7.08;4.87;;;;;;;31.56;38.69;100866.16;1640087;86;21098;-57
2022/08/27 10:01:54;;;;;;;9.78;5.50;;;;;;;31.61;38.70;100865.66;1628751;86;21125;-57
2022/08/27 10:04:41;;;;;;;11.20;5.10;;;;;;;31.66;38.50;100866.84;1640018;86;21085;-57
2022/08/27 10:07:39;;;;;;;7.37;4.33;;;;;;;31.73;38.21;100870.56;1637237;86;21061;-57
2022/08/27 10:10:35;;;;;;;11.85;5.00;;;;;;;31.77;37.68;100871.91;1585948;88;21592;-57
2022/08/27 10:13:22;;;;;;;11.45;4.83;;;;;;;31.82;38.24;100866.84;1630810;86;21074;-56
2022/08/27 10:16:22;;;;;;;5.75;4.15;;;;;;;31.88;37.46;100866.18;1650348;86;21087;-57
2022/08/27 10:19:33;;;;;;;12.70;4.65;;;;;;;31.94;37.14;100868.23;1626942;86;21137;-56
2022/08/27 10:22:40;;;;;;;8.73;5.10;;;;;;;32.00;36.71;100868.94;1635096;86;21594;-56
2022/08/27 10:25:34;;;;;;;9.25;4.28;;;;;;;32.04;36.69;100868.94;1649892;86;21089;-56
2022/08/27 10:28:21;;;;;;;8.43;4.33;;;;;;;32.09;36.42;100873.28;1637150;86;21057;-56
2022/08/27 10:31:30;;;;;;;9.63;4.80;;;;;;;32.13;36.36;100871.62;1635647;85;21117;-56
2022/08/27 10:34:38;;;;;;;7.92;4.12;;;;;;;32.18;36.10;100875.97;1635271;86;21105;-56
2022/08/27 10:37:27;;;;;;;10.10;4.42;;;;;;;32.21;36.17;100877.00;1598813;88;21111;-56
2022/08/27 10:40:18;;;;;;;8.20;3.60;;;;;;;32.25;36.55;100876.99;1596028;88;21093;-56
2022/08/27 10:43:18;;;;;;;7.70;3.87;;;;;;;32.30;36.82;100875.95;1604462;87;21104;-56
2022/08/27 10:46:30;;;;;;;5.30;3.72;;;;;;;32.34;36.68;100879.99;1598948;88;21077;-57
2022/08/27 10:49:08;;;;;;;7.90;3.72;;;;;;;32.37;36.87;100872.94;1602902;87;21077;-56
2022/08/27 10:51:43;;;;;;;8.53;4.35;;;;;;;32.43;36.41;100877.63;1600123;87;21126;-56
2022/08/27 10:54:39;;;;;;;8.53;3.80;;;;;;;32.47;36.37;100870.92;1552628;91;21074;-56
2022/08/27 10:57:47;;;;;;;10.10;4.37;;;;;;;32.53;36.72;100872.93;1540944;92;21082;-57
2022/08/27 11:00:22;;;;;;;7.62;4.37;;;;;;;32.59;36.92;100866.85;1534003;92;21675;-56
2022/08/27 11:02:58;;;;;;;8.38;4.30;;;;;;;32.64;36.61;100871.23;1524280;92;21131;-57
2022/08/27 11:05:44;;;;;;;6.92;3.80;;;;;;;32.68;36.46;100875.27;1523857;92;21074;-56
2022/08/27 11:08:35;;;;;;;11.90;3.72;;;;;;;32.72;36.62;100873.90;1528976;92;21088;-56
2022/08/27 11:11:06;;;;;;;5.62;4.12;;;;;;;32.75;36.71;100877.08;1527778;91;22131;-56
2022/08/27 11:13:37;;;;;;;;;;;;;;;32.77;36.89;100876.90;1552213;90;21089;-56
2022/08/27 11:16:12;;;;;;;9.58;4.12;;;;;;;32.78;36.83;100882.64;1549411;90;20192;-56
2022/08/27 11:18:50;;;;;;;7.30;4.22;;;;;;;32.77;37.26;100879.59;1528891;92;21090;-57
2022/08/27 11:21:28;;;;;;;9.80;4.50;;;;;;;32.75;36.80;100876.23;1528586;91;21099;-56
2022/08/27 11:24:01;;;;;;;9.18;4.12;;;;;;;32.72;36.62;100886.03;1545018;92;21068;-56
2022/08/27 11:26:30;;;;;;;6.62;4.05;;;;;;;32.69;36.78;100885.02;1515757;93;21104;-56
2022/08/27 11:29:00;;;;;;;6.03;3.75;;;;;;;32.67;37.12;100878.95;1478685;93;21586;-56
2022/08/27 11:31:39;;;;;;;7.28;4.67;;;;;;;32.63;37.08;100877.62;1524095;93;21122;-57
2022/08/27 11:34:26;;;;;;;7.15;4.05;;;;;;;32.60;37.00;100869.36;1465088;96;21112;-56
2022/08/27 11:37:10;;;;;;;10.25;4.12;;;;;;;32.57;37.17;100875.12;1487712;95;21137;-56
2022/08/27 11:39:59;;;;;;;11.38;5.12;;;;;;;32.53;37.38;100868.39;1484733;94;21168;-56
2022/08/27 11:42:50;;;;;;;8.08;4.85;;;;;;;32.52;38.01;100869.92;1462707;96;21112;-57
2022/08/27 11:45:37;;;;;;;8.18;4.53;;;;;;;32.53;37.87;100868.89;1512374;93;22085;-57
2022/08/27 11:48:27;;;;;;;6.97;4.55;;;;;;;32.55;37.63;100874.95;1512470;93;21107;-57
2022/08/27 11:51:05;;;;;;;5.97;3.87;;;;;;;32.55;37.99;100877.64;1442830;97;21591;-57
2022/08/27 11:53:56;;;;;;;6.58;3.95;;;;;;;32.54;38.05;100880.02;1453522;97;21189;-57
2022/08/27 11:56:35;;;;;;;8.60;3.90;;;;;;;32.53;38.35;100874.28;1462006;96;21075;-57
2022/08/27 11:59:28;;;;;;;4.00;3.20;;;;;;;32.54;38.58;100874.09;1475966;96;21246;-57
2022/08/27 12:01:59;;;;;;;7.33;3.02;;;;;;;32.56;39.23;100877.99;1494621;94;21087;-57
2022/08/27 12:04:38;;;;;;;4.60;3.02;;;;;;;32.59;39.73;100876.28;1492523;96;21074;-57
2022/08/27 12:07:21;;;;;;;6.67;3.27;;;;;;;32.61;39.46;100872.91;1503681;94;21101;-57
2022/08/27 12:10:18;;;;;;;6.33;2.98;;;;;;;32.63;39.90;100874.42;1513898;93;21134;-57
2022/08/27 12:13:14;;;;;;;6.87;2.98;;;;;;;32.66;39.62;100866.52;1512038;93;21088;-57
2022/08/27 12:16:02;;;;;;;5.67;3.22;;;;;;;32.66;40.04;100861.13;1474217;96;21116;-57
2022/08/27 12:18:46;;;;;;;8.60;3.25;;;;;;;32.67;39.57;100864.98;1437025;99;21132;-57
2022/08/27 12:21:24;;;;;;;7.00;3.47;;;;;;;32.68;39.46;100868.53;1438783;99;21161;-57
2022/08/27 12:24:03;;;;;;;7.92;3.35;;;;;;;32.68;39.57;100865.33;1419178;101;21110;-57
2022/08/27 12:26:41;;;;;;;5.22;3.10;;;;;;;32.67;39.16;100865.48;1419640;101;21157;-57
2022/08/27 12:29:40;;;;;;;6.35;3.60;;;;;;;32.67;39.54;100863.64;1415200;101;21665;-57
2022/08/27 12:32:39;;;;;;;6.75;3.45;;;;;;;32.67;39.54;100861.44;1402436;102;21253;-57
2022/08/27 12:35:43;;;;;;;6.95;3.60;;;;;;;32.66;39.59;100863.81;1406096;102;21089;-57
2022/08/27 12:38:26;;;;;;;5.33;3.40;;;;;;;32.67;39.55;100860.09;1406448;101;21608;-57
2022/08/27 12:40:56;;;;;;;9.88;4.20;;;;;;;32.68;39.36;100856.40;1355114;105;21648;-57
2022/08/27 12:43:26;;;;;;;5.33;3.40;;;;;;;32.69;39.60;100858.06;1345914;106;21121;-57
2022/08/27 12:46:15;;;;;;;6.53;4.00;;;;;;;32.68;39.58;100863.98;1340537;106;21169;-57
2022/08/27 12:48:47;;;;;;;6.25;3.92;;;;;;;32.69;39.71;100860.27;1326537;107;21161;-57
2022/08/27 12:51:19;;;;;;;9.18;4.40;;;;;;;32.72;40.00;100869.86;1298344;108;21194;-57
2022/08/27 12:53:52;;;;;;;10.82;4.20;;;;;;;32.71;40.22;100862.27;1314001;107;21279;-58
2022/08/27 12:56:39;;;;;;;7.95;4.10;;;;;;;32.73;40.19;100862.09;1340542;105;21187;-56
2022/08/27 12:59:44;;;;;;;10.53;3.72;;;;;;;32.73;40.05;100867.48;1335720;107;21654;-55
2022/08/27 13:02:20;;;;;;;8.80;4.20;;;;;;;32.73;39.85;100867.48;1321275;107;21744;-58
2022/08/27 13:04:46;;;;;;;7.58;4.78;;;;;;;32.72;39.60;100872.05;1302026;109;21170;-55
2022/08/27 13:07:33;;;;;;;6.60;3.92;;;;;;;32.71;39.40;100868.16;1315722;108;21713;-55
2022/08/27 13:10:18;;;;;;;5.03;4.20;;;;;;;32.71;39.44;100870.86;1335355;104;21131;-57
2022/08/27 13:12:46;;;;;;;8.85;4.10;;;;;;;32.72;39.49;100873.90;1359501;104;21610;-58
2022/08/27 13:15:15;;;;;;;7.58;3.75;;;;;;;32.71;39.07;100873.05;1359282;104;21204;-58
2022/08/27 13:17:43;;;;;;;9.25;4.08;;;;;;;32.72;38.84;100872.55;1361690;100;21153;-58
2022/08/27 13:22:49;;;;;;;6.45;4.20;;;;;;;32.71;38.35;100872.20;1364544;104;21620;-57
2022/08/27 13:25:24;;;;;;;6.40;3.90;;;;;;;32.68;38.33;100872.56;1365267;103;21554;-57
2022/08/27 13:27:54;;;;;;;7.37;4.25;;;;;;;32.66;38.54;100869.20;1362443;104;21256;-57
2022/08/27 13:30:21;;;;;;;8.13;3.77;;;;;;;32.64;38.09;100873.93;1382962;101;21207;-58
2022/08/27 13:32:48;;;;;;;6.45;4.30;;;;;;;32.64;38.34;100869.39;1386664;101;21145;-57
2022/08/27 13:35:15;;;;;;;8.70;4.10;;;;;;;32.64;38.55;100864.50;1388825;102;21160;-57
2022/08/27 13:37:49;;;;;;;7.25;4.10;;;;;;;32.63;38.61;100869.53;1389975;101;21146;-58
2022/08/27 13:40:29;;;;;;;7.12;4.47;;;;;;;32.64;38.53;100864.50;1406807;99;21127;-58
2022/08/27 13:43:06;;;;;;;6.17;3.63;;;;;;;32.63;38.42;100861.45;1413809;100;21680;-57
2022/08/27 13:45:32;;;;;;;4.37;3.45;;;;;;;32.60;38.04;100861.81;1314524;108;21202;-57
2022/08/27 13:47:59;;;;;;;5.40;3.65;;;;;;;32.58;37.77;100859.80;1350895;105;21177;-55
2022/08/27 13:50:29;;;;;;;11.20;3.75;;;;;;;32.54;37.85;100862.50;1348098;106;21161;-55
2022/08/27 13:55:57;;;;;;;5.97;4.05;;;;;;;32.51;38.24;100868.22;1288470;110;21303;-58
2022/08/27 13:58:27;;;;;;;7.00;3.80;;;;;;;32.47;38.55;100876.31;1290165;110;21244;-58
2022/08/27 14:00:54;;;;;;;8.35;4.40;;;;;;;32.46;38.66;100882.73;1362486;102;21173;-57
2022/08/27 14:03:32;;;;;;;8.68;3.98;;;;;;;32.45;38.87;100887.73;1394284;102;21132;-58
2022/08/27 14:05:59;;;;;;;5.70;3.75;;;;;;;32.45;38.99;100890.42;1377191;103;21716;-58
2022/08/27 14:08:32;;;;;;;7.15;4.40;;;;;;;32.45;39.14;100891.28;1374808;101;21138;-57
2022/08/27 14:11:07;;;;;;;5.95;4.40;;;;;;;32.46;39.22;100895.66;1373124;103;21169;-58
2022/08/27 14:13:45;;;;;;;7.10;4.83;;;;;;;32.46;39.30;100889.46;1364838;103;21142;-57
2022/08/27 14:16:23;;;;;;;5.78;4.35;;;;;;;32.46;39.38;100886.77;1370815;103;21225;-58
2022/08/27 14:18:57;;;;;;;7.87;5.37;;;;;;;32.46;39.62;100894.84;1377448;103;21550;-57
2022/08/27 14:21:24;;;;;;;7.95;5.55;;;;;;;32.45;39.85;100895.81;1416149;100;21116;-57
2022/08/27 14:23:51;;;;;;;9.15;5.47;;;;;;;32.45;39.59;100890.42;1500991;94;21140;-57
2022/08/27 14:26:18;;;;;;;10.70;5.80;;;;;;;32.44;39.71;100890.11;1506445;94;22513;-57
2022/08/27 14:28:45;;;;;;;6.03;5.20;;;;;;;32.42;39.92;100890.78;1501447;94;21110;-58
2022/08/27 14:31:12;;;;;;;8.78;5.60;;;;;;;32.40;40.19;100895.47;1501843;94;21202;-57
2022/08/27 14:33:39;;;;;;;11.93;6.12;;;;;;;32.39;40.23;100901.88;1503547;94;21673;-55
2022/08/27 14:36:07;;;;;;;14.28;6.67;;;;;;;32.38;40.42;100906.42;1502214;94;21665;-55